sensor_id;sensor_type;location;lat;lon;timestamp;P1;durP1;ratioP1;P2;durP2;ratioP2
54705;SDS011;40603;48.774;8.916;2022-10-13T00:02:23;30.33;;;14.27;;
54705;SDS011;40603;48.774;8.916;2022-10-13T00:04:49;29.17;;;14.60;;
54705;SDS011;40603;48.774;8.916;2022-10-13T00:07:14;30.92;;;13.82;;
54705;SDS011;40603;48.774;8.916;2022-10-13T00:09:39;27.23;;;14.30;;
54705;SDS011;40603;48.774;8.916;2022-10-13T00:12:05;19.45;;;11.85;;
54705;SDS011;40603;48.774;8.916;2022-10-13T00:14:30;22.80;;;13.55;;
54705;SDS011;40603;48.774;8.916;2022-10-13T00:16:55;25.15;;;12.35;;
54705;SDS011;40603;48.774;8.916;2022-10-13T00:19:21;26.23;;;14.50;;
54705;SDS011;40603;48.774;8.916;2022-10-13T00:21:46;22.58;;;13.48;;
54705;SDS011;40603;48.774;8.916;2022-10-13T00:24:11;34.20;;;14.07;;
54705;SDS011;40603;48.774;8.916;2022-10-13T00:26:37;26.13;;;14.98;;
54705;SDS011;40603;48.774;8.916;2022-10-13T00:29:02;27.98;;;14.98;;
54705;SDS011;40603;48.774;8.916;2022-10-13T00:31:29;27.73;;;14.85;;
54705;SDS011;40603;48.774;8.916;2022-10-13T00:33:56;26.98;;;14.40;;
54705;SDS011;40603;48.774;8.916;2022-10-13T00:36:22;31.67;;;14.98;;
54705;SDS011;40603;48.774;8.916;2022-10-13T00:38:48;29.40;;;14.55;;
54705;SDS011;40603;48.774;8.916;2022-10-13T00:41:14;29.80;;;15.10;;
54705;SDS011;40603;48.774;8.916;2022-10-13T00:43:56;34.10;;;15.63;;
54705;SDS011;40603;48.774;8.916;2022-10-13T00:46:30;28.88;;;15.02;;
54705;SDS011;40603;48.774;8.916;2022-10-13T00:48:57;28.73;;;14.60;;
54705;SDS011;40603;48.774;8.916;2022-10-13T00:51:25;23.67;;;14.30;;
54705;SDS011;40603;48.774;8.916;2022-10-13T00:53:51;31.30;;;13.68;;
54705;SDS011;40603;48.774;8.916;2022-10-13T00:56:18;31.35;;;14.73;;
54705;SDS011;40603;48.774;8.916;2022-10-13T00:58:44;30.25;;;15.40;;
54705;SDS011;40603;48.774;8.916;2022-10-13T01:01:10;36.15;;;14.07;;
54705;SDS011;40603;48.774;8.916;2022-10-13T01:03:35;27.75;;;13.75;;
54705;SDS011;40603;48.774;8.916;2022-10-13T01:06:02;25.73;;;14.25;;
54705;SDS011;40603;48.774;8.916;2022-10-13T01:08:28;33.05;;;16.15;;
54705;SDS011;40603;48.774;8.916;2022-10-13T01:11:05;30.38;;;14.88;;
54705;SDS011;40603;48.774;8.916;2022-10-13T01:13:48;28.77;;;13.32;;
54705;SDS011;40603;48.774;8.916;2022-10-13T01:16:23;27.95;;;13.27;;
54705;SDS011;40603;48.774;8.916;2022-10-13T01:30:22;31.95;;;16.20;;
54705;SDS011;40603;48.774;8.916;2022-10-13T01:33:10;32.03;;;15.45;;
54705;SDS011;40603;48.774;8.916;2022-10-13T01:35:49;33.72;;;16.10;;
54705;SDS011;40603;48.774;8.916;2022-10-13T01:40:53;43.35;;;18.30;;
54705;SDS011;40603;48.774;8.916;2022-10-13T01:43:45;33.17;;;16.38;;
54705;SDS011;40603;48.774;8.916;2022-10-13T01:46:16;32.33;;;17.05;;
54705;SDS011;40603;48.774;8.916;2022-10-13T01:48:45;28.80;;;15.90;;
54705;SDS011;40603;48.774;8.916;2022-10-13T01:51:12;37.13;;;17.02;;
54705;SDS011;40603;48.774;8.916;2022-10-13T01:53:40;36.45;;;18.42;;
54705;SDS011;40603;48.774;8.916;2022-10-13T01:56:06;39.60;;;17.08;;
54705;SDS011;40603;48.774;8.916;2022-10-13T01:58:32;37.13;;;17.40;;
54705;SDS011;40603;48.774;8.916;2022-10-13T02:01:02;34.53;;;17.33;;
54705;SDS011;40603;48.774;8.916;2022-10-13T02:06:38;37.65;;;18.35;;
54705;SDS011;40603;48.774;8.916;2022-10-13T02:11:51;38.55;;;17.83;;
54705;SDS011;40603;48.774;8.916;2022-10-13T02:14:23;35.10;;;16.63;;
54705;SDS011;40603;48.774;8.916;2022-10-13T02:16:50;32.83;;;16.98;;
54705;SDS011;40603;48.774;8.916;2022-10-13T02:19:17;36.80;;;17.02;;
54705;SDS011;40603;48.774;8.916;2022-10-13T02:21:43;31.42;;;17.15;;
54705;SDS011;40603;48.774;8.916;2022-10-13T02:24:09;42.30;;;17.08;;
54705;SDS011;40603;48.774;8.916;2022-10-13T02:26:34;36.80;;;17.33;;
54705;SDS011;40603;48.774;8.916;2022-10-13T02:29:06;36.50;;;17.13;;
54705;SDS011;40603;48.774;8.916;2022-10-13T02:31:32;31.55;;;17.27;;
54705;SDS011;40603;48.774;8.916;2022-10-13T02:33:57;32.95;;;16.90;;
54705;SDS011;40603;48.774;8.916;2022-10-13T02:36:23;33.70;;;16.48;;
54705;SDS011;40603;48.774;8.916;2022-10-13T02:38:48;38.50;;;17.48;;
54705;SDS011;40603;48.774;8.916;2022-10-13T02:41:13;38.08;;;17.75;;
54705;SDS011;40603;48.774;8.916;2022-10-13T02:43:39;36.65;;;17.00;;
54705;SDS011;40603;48.774;8.916;2022-10-13T02:46:04;38.22;;;17.95;;
54705;SDS011;40603;48.774;8.916;2022-10-13T02:48:30;31.63;;;16.67;;
54705;SDS011;40603;48.774;8.916;2022-10-13T02:50:55;35.58;;;15.85;;
54705;SDS011;40603;48.774;8.916;2022-10-13T02:53:20;35.50;;;16.70;;
54705;SDS011;40603;48.774;8.916;2022-10-13T02:55:45;40.55;;;17.67;;
54705;SDS011;40603;48.774;8.916;2022-10-13T02:58:12;30.40;;;15.90;;
54705;SDS011;40603;48.774;8.916;2022-10-13T03:00:37;36.33;;;16.92;;
54705;SDS011;40603;48.774;8.916;2022-10-13T03:03:03;33.47;;;16.90;;
54705;SDS011;40603;48.774;8.916;2022-10-13T03:05:29;35.17;;;16.67;;
54705;SDS011;40603;48.774;8.916;2022-10-13T03:07:54;32.58;;;15.98;;
54705;SDS011;40603;48.774;8.916;2022-10-13T03:10:19;36.13;;;17.25;;
54705;SDS011;40603;48.774;8.916;2022-10-13T03:12:45;40.08;;;17.75;;
54705;SDS011;40603;48.774;8.916;2022-10-13T03:15:10;31.05;;;16.15;;
54705;SDS011;40603;48.774;8.916;2022-10-13T03:17:35;40.55;;;18.13;;
54705;SDS011;40603;48.774;8.916;2022-10-13T03:20:01;39.35;;;17.10;;
54705;SDS011;40603;48.774;8.916;2022-10-13T03:22:26;36.47;;;16.70;;
54705;SDS011;40603;48.774;8.916;2022-10-13T03:24:52;31.65;;;16.63;;
54705;SDS011;40603;48.774;8.916;2022-10-13T03:27:17;37.38;;;16.88;;
54705;SDS011;40603;48.774;8.916;2022-10-13T03:29:43;36.30;;;16.17;;
54705;SDS011;40603;48.774;8.916;2022-10-13T03:32:08;38.72;;;16.65;;
54705;SDS011;40603;48.774;8.916;2022-10-13T03:34:34;31.88;;;16.52;;
54705;SDS011;40603;48.774;8.916;2022-10-13T03:36:59;33.03;;;15.60;;
54705;SDS011;40603;48.774;8.916;2022-10-13T03:39:24;34.92;;;17.35;;
54705;SDS011;40603;48.774;8.916;2022-10-13T03:41:49;34.75;;;16.13;;
54705;SDS011;40603;48.774;8.916;2022-10-13T03:44:15;31.88;;;16.65;;
54705;SDS011;40603;48.774;8.916;2022-10-13T03:46:40;29.30;;;16.38;;
54705;SDS011;40603;48.774;8.916;2022-10-13T03:49:06;43.85;;;17.42;;
54705;SDS011;40603;48.774;8.916;2022-10-13T03:51:31;36.10;;;18.08;;
54705;SDS011;40603;48.774;8.916;2022-10-13T03:53:57;35.58;;;16.85;;
54705;SDS011;40603;48.774;8.916;2022-10-13T03:56:23;34.47;;;16.17;;
54705;SDS011;40603;48.774;8.916;2022-10-13T03:58:49;33.05;;;16.85;;
54705;SDS011;40603;48.774;8.916;2022-10-13T04:01:18;36.40;;;17.48;;
54705;SDS011;40603;48.774;8.916;2022-10-13T04:03:45;37.95;;;16.23;;
54705;SDS011;40603;48.774;8.916;2022-10-13T04:06:10;32.55;;;16.38;;
54705;SDS011;40603;48.774;8.916;2022-10-13T04:08:36;35.17;;;18.70;;
54705;SDS011;40603;48.774;8.916;2022-10-13T04:11:02;36.83;;;18.10;;
54705;SDS011;40603;48.774;8.916;2022-10-13T04:13:30;34.53;;;18.00;;
54705;SDS011;40603;48.774;8.916;2022-10-13T04:15:58;30.95;;;16.75;;
54705;SDS011;40603;48.774;8.916;2022-10-13T04:18:26;34.95;;;17.13;;
54705;SDS011;40603;48.774;8.916;2022-10-13T04:20:51;38.08;;;18.23;;
54705;SDS011;40603;48.774;8.916;2022-10-13T04:23:16;38.78;;;18.15;;
54705;SDS011;40603;48.774;8.916;2022-10-13T04:25:41;36.72;;;17.80;;
54705;SDS011;40603;48.774;8.916;2022-10-13T04:28:07;38.25;;;17.83;;
54705;SDS011;40603;48.774;8.916;2022-10-13T04:30:33;29.55;;;16.45;;
54705;SDS011;40603;48.774;8.916;2022-10-13T04:32:58;35.65;;;17.35;;
54705;SDS011;40603;48.774;8.916;2022-10-13T04:35:24;35.53;;;18.15;;
54705;SDS011;40603;48.774;8.916;2022-10-13T04:37:49;37.63;;;17.08;;
54705;SDS011;40603;48.774;8.916;2022-10-13T04:40:14;30.20;;;15.95;;
54705;SDS011;40603;48.774;8.916;2022-10-13T04:42:40;31.95;;;16.48;;
54705;SDS011;40603;48.774;8.916;2022-10-13T04:45:05;34.22;;;16.95;;
54705;SDS011;40603;48.774;8.916;2022-10-13T04:47:32;37.72;;;17.23;;
54705;SDS011;40603;48.774;8.916;2022-10-13T04:49:58;38.55;;;17.85;;
54705;SDS011;40603;48.774;8.916;2022-10-13T04:52:23;43.90;;;17.80;;
54705;SDS011;40603;48.774;8.916;2022-10-13T04:54:49;33.72;;;16.25;;
54705;SDS011;40603;48.774;8.916;2022-10-13T04:57:14;36.58;;;16.80;;
54705;SDS011;40603;48.774;8.916;2022-10-13T04:59:39;36.03;;;17.83;;
54705;SDS011;40603;48.774;8.916;2022-10-13T05:02:05;36.33;;;18.35;;
54705;SDS011;40603;48.774;8.916;2022-10-13T05:04:30;42.40;;;18.65;;
54705;SDS011;40603;48.774;8.916;2022-10-13T05:06:55;41.00;;;18.85;;
54705;SDS011;40603;48.774;8.916;2022-10-13T05:09:20;35.42;;;16.88;;
54705;SDS011;40603;48.774;8.916;2022-10-13T05:11:46;31.75;;;16.90;;
54705;SDS011;40603;48.774;8.916;2022-10-13T05:14:11;29.48;;;16.00;;
54705;SDS011;40603;48.774;8.916;2022-10-13T05:16:37;32.45;;;15.43;;
54705;SDS011;40603;48.774;8.916;2022-10-13T05:19:02;28.73;;;16.63;;
54705;SDS011;40603;48.774;8.916;2022-10-13T05:21:28;31.00;;;15.70;;
54705;SDS011;40603;48.774;8.916;2022-10-13T05:23:54;34.40;;;16.25;;
54705;SDS011;40603;48.774;8.916;2022-10-13T05:26:24;35.85;;;17.38;;
54705;SDS011;40603;48.774;8.916;2022-10-13T05:28:56;28.60;;;15.18;;
54705;SDS011;40603;48.774;8.916;2022-10-13T05:31:26;35.15;;;16.77;;
54705;SDS011;40603;48.774;8.916;2022-10-13T05:33:52;29.58;;;16.45;;
54705;SDS011;40603;48.774;8.916;2022-10-13T05:36:18;28.45;;;15.48;;
54705;SDS011;40603;48.774;8.916;2022-10-13T05:38:52;30.52;;;16.38;;
54705;SDS011;40603;48.774;8.916;2022-10-13T05:41:19;28.75;;;16.15;;
54705;SDS011;40603;48.774;8.916;2022-10-13T05:43:45;32.85;;;16.30;;
54705;SDS011;40603;48.774;8.916;2022-10-13T05:46:10;28.40;;;16.20;;
54705;SDS011;40603;48.774;8.916;2022-10-13T05:48:36;28.35;;;15.43;;
54705;SDS011;40603;48.774;8.916;2022-10-13T05:51:02;28.05;;;15.35;;
54705;SDS011;40603;48.774;8.916;2022-10-13T05:53:32;25.10;;;15.85;;
54705;SDS011;40603;48.774;8.916;2022-10-13T05:55:59;28.95;;;15.32;;
54705;SDS011;40603;48.774;8.916;2022-10-13T05:58:33;25.73;;;15.75;;
54705;SDS011;40603;48.774;8.916;2022-10-13T06:03:26;32.13;;;16.58;;
54705;SDS011;40603;48.774;8.916;2022-10-13T06:05:51;32.08;;;14.57;;
54705;SDS011;40603;48.774;8.916;2022-10-13T06:08:17;32.28;;;14.95;;
54705;SDS011;40603;48.774;8.916;2022-10-13T06:10:42;30.48;;;15.63;;
54705;SDS011;40603;48.774;8.916;2022-10-13T06:13:08;27.85;;;15.88;;
54705;SDS011;40603;48.774;8.916;2022-10-13T06:15:34;28.27;;;15.40;;
54705;SDS011;40603;48.774;8.916;2022-10-13T06:17:59;26.05;;;15.75;;
54705;SDS011;40603;48.774;8.916;2022-10-13T06:20:24;26.30;;;14.93;;
54705;SDS011;40603;48.774;8.916;2022-10-13T06:22:52;26.73;;;15.55;;
54705;SDS011;40603;48.774;8.916;2022-10-13T06:25:18;33.00;;;16.23;;
54705;SDS011;40603;48.774;8.916;2022-10-13T06:27:44;31.10;;;16.70;;
54705;SDS011;40603;48.774;8.916;2022-10-13T06:30:09;31.45;;;16.45;;
54705;SDS011;40603;48.774;8.916;2022-10-13T06:32:34;30.45;;;16.77;;
54705;SDS011;40603;48.774;8.916;2022-10-13T06:35:00;29.35;;;16.08;;
54705;SDS011;40603;48.774;8.916;2022-10-13T06:37:25;27.25;;;14.90;;
54705;SDS011;40603;48.774;8.916;2022-10-13T06:39:50;30.83;;;16.17;;
54705;SDS011;40603;48.774;8.916;2022-10-13T06:42:16;31.77;;;15.98;;
54705;SDS011;40603;48.774;8.916;2022-10-13T06:44:42;27.55;;;15.00;;
54705;SDS011;40603;48.774;8.916;2022-10-13T06:47:07;26.98;;;14.75;;
54705;SDS011;40603;48.774;8.916;2022-10-13T06:49:32;28.17;;;15.90;;
54705;SDS011;40603;48.774;8.916;2022-10-13T06:51:58;30.40;;;15.77;;
54705;SDS011;40603;48.774;8.916;2022-10-13T06:54:23;32.53;;;16.15;;
54705;SDS011;40603;48.774;8.916;2022-10-13T06:56:48;29.45;;;14.73;;
54705;SDS011;40603;48.774;8.916;2022-10-13T06:59:14;27.48;;;16.33;;
54705;SDS011;40603;48.774;8.916;2022-10-13T07:01:39;30.45;;;15.43;;
54705;SDS011;40603;48.774;8.916;2022-10-13T07:04:04;27.90;;;14.68;;
54705;SDS011;40603;48.774;8.916;2022-10-13T07:06:30;29.08;;;15.75;;
54705;SDS011;40603;48.774;8.916;2022-10-13T07:08:55;27.48;;;15.68;;
54705;SDS011;40603;48.774;8.916;2022-10-13T07:11:20;29.98;;;15.73;;
54705;SDS011;40603;48.774;8.916;2022-10-13T07:13:46;27.63;;;15.35;;
54705;SDS011;40603;48.774;8.916;2022-10-13T07:16:11;28.73;;;15.02;;
54705;SDS011;40603;48.774;8.916;2022-10-13T07:18:36;24.88;;;14.32;;
54705;SDS011;40603;48.774;8.916;2022-10-13T07:21:02;30.52;;;14.98;;
54705;SDS011;40603;48.774;8.916;2022-10-13T07:23:28;27.08;;;15.15;;
54705;SDS011;40603;48.774;8.916;2022-10-13T07:25:54;22.15;;;13.52;;
54705;SDS011;40603;48.774;8.916;2022-10-13T07:28:23;28.85;;;15.32;;
54705;SDS011;40603;48.774;8.916;2022-10-13T07:30:49;28.40;;;14.25;;
54705;SDS011;40603;48.774;8.916;2022-10-13T07:33:14;27.00;;;15.10;;
54705;SDS011;40603;48.774;8.916;2022-10-13T07:35:40;28.83;;;14.60;;
54705;SDS011;40603;48.774;8.916;2022-10-13T07:38:05;26.80;;;14.07;;
54705;SDS011;40603;48.774;8.916;2022-10-13T07:40:31;27.20;;;15.13;;
54705;SDS011;40603;48.774;8.916;2022-10-13T07:42:56;22.50;;;14.27;;
54705;SDS011;40603;48.774;8.916;2022-10-13T07:45:22;24.33;;;14.27;;
54705;SDS011;40603;48.774;8.916;2022-10-13T07:47:47;24.48;;;14.40;;
54705;SDS011;40603;48.774;8.916;2022-10-13T07:50:13;24.60;;;14.50;;
54705;SDS011;40603;48.774;8.916;2022-10-13T07:52:38;26.58;;;14.05;;
54705;SDS011;40603;48.774;8.916;2022-10-13T07:55:03;24.55;;;14.57;;
54705;SDS011;40603;48.774;8.916;2022-10-13T07:57:29;24.58;;;13.73;;
54705;SDS011;40603;48.774;8.916;2022-10-13T07:59:54;20.73;;;12.60;;
54705;SDS011;40603;48.774;8.916;2022-10-13T08:02:20;23.45;;;14.25;;
54705;SDS011;40603;48.774;8.916;2022-10-13T08:04:45;22.23;;;12.80;;
54705;SDS011;40603;48.774;8.916;2022-10-13T08:07:11;29.20;;;14.48;;
54705;SDS011;40603;48.774;8.916;2022-10-13T08:09:36;19.33;;;11.52;;
54705;SDS011;40603;48.774;8.916;2022-10-13T08:12:02;24.65;;;12.50;;
54705;SDS011;40603;48.774;8.916;2022-10-13T08:14:28;18.70;;;12.05;;
54705;SDS011;40603;48.774;8.916;2022-10-13T08:16:54;19.17;;;12.02;;
54705;SDS011;40603;48.774;8.916;2022-10-13T08:19:19;20.08;;;11.50;;
54705;SDS011;40603;48.774;8.916;2022-10-13T08:21:46;20.83;;;11.52;;
54705;SDS011;40603;48.774;8.916;2022-10-13T08:24:12;23.17;;;11.50;;
54705;SDS011;40603;48.774;8.916;2022-10-13T08:26:39;17.23;;;10.80;;
54705;SDS011;40603;48.774;8.916;2022-10-13T08:29:05;18.05;;;10.80;;
54705;SDS011;40603;48.774;8.916;2022-10-13T08:31:30;16.75;;;10.77;;
54705;SDS011;40603;48.774;8.916;2022-10-13T08:33:55;18.48;;;10.32;;
54705;SDS011;40603;48.774;8.916;2022-10-13T08:36:21;19.80;;;10.38;;
54705;SDS011;40603;48.774;8.916;2022-10-13T08:38:46;19.67;;;11.80;;
54705;SDS011;40603;48.774;8.916;2022-10-13T08:41:19;21.52;;;11.13;;
54705;SDS011;40603;48.774;8.916;2022-10-13T08:43:48;33.60;;;11.88;;
54705;SDS011;40603;48.774;8.916;2022-10-13T08:46:22;18.48;;;10.38;;
54705;SDS011;40603;48.774;8.916;2022-10-13T08:48:50;21.63;;;10.93;;
54705;SDS011;40603;48.774;8.916;2022-10-13T08:51:16;18.10;;;11.13;;
54705;SDS011;40603;48.774;8.916;2022-10-13T08:53:42;16.73;;;10.30;;
54705;SDS011;40603;48.774;8.916;2022-10-13T08:58:38;19.77;;;10.90;;
54705;SDS011;40603;48.774;8.916;2022-10-13T09:06:22;18.80;;;9.52;;
54705;SDS011;40603;48.774;8.916;2022-10-13T09:11:21;15.40;;;9.43;;
54705;SDS011;40603;48.774;8.916;2022-10-13T09:13:46;18.50;;;8.48;;
54705;SDS011;40603;48.774;8.916;2022-10-13T09:16:12;19.00;;;9.27;;
54705;SDS011;40603;48.774;8.916;2022-10-13T09:18:37;16.05;;;8.80;;
54705;SDS011;40603;48.774;8.916;2022-10-13T09:21:10;13.68;;;9.13;;
54705;SDS011;40603;48.774;8.916;2022-10-13T09:23:42;20.23;;;10.13;;
54705;SDS011;40603;48.774;8.916;2022-10-13T09:26:08;21.73;;;8.98;;
54705;SDS011;40603;48.774;8.916;2022-10-13T09:28:40;19.52;;;9.18;;
54705;SDS011;40603;48.774;8.916;2022-10-13T09:33:40;16.05;;;9.60;;
54705;SDS011;40603;48.774;8.916;2022-10-13T09:36:10;26.05;;;9.93;;
54705;SDS011;40603;48.774;8.916;2022-10-13T09:38:38;18.35;;;9.88;;
54705;SDS011;40603;48.774;8.916;2022-10-13T09:41:09;24.75;;;10.52;;
54705;SDS011;40603;48.774;8.916;2022-10-13T09:46:20;18.65;;;10.13;;
54705;SDS011;40603;48.774;8.916;2022-10-13T09:49:30;15.80;;;9.18;;
54705;SDS011;40603;48.774;8.916;2022-10-13T09:57:06;14.55;;;8.80;;
54705;SDS011;40603;48.774;8.916;2022-10-13T09:59:42;18.30;;;9.05;;
54705;SDS011;40603;48.774;8.916;2022-10-13T10:02:14;18.67;;;8.25;;
54705;SDS011;40603;48.774;8.916;2022-10-13T10:04:44;17.55;;;8.10;;
54705;SDS011;40603;48.774;8.916;2022-10-13T10:07:11;19.02;;;8.07;;
54705;SDS011;40603;48.774;8.916;2022-10-13T10:09:40;16.60;;;8.20;;
54705;SDS011;40603;48.774;8.916;2022-10-13T10:12:12;16.00;;;8.25;;
54705;SDS011;40603;48.774;8.916;2022-10-13T10:14:40;19.13;;;8.48;;
54705;SDS011;40603;48.774;8.916;2022-10-13T10:19:46;13.98;;;8.25;;
54705;SDS011;40603;48.774;8.916;2022-10-13T10:22:29;18.50;;;9.43;;
54705;SDS011;40603;48.774;8.916;2022-10-13T10:30:55;15.88;;;9.10;;
54705;SDS011;40603;48.774;8.916;2022-10-13T10:33:50;17.33;;;9.05;;
54705;SDS011;40603;48.774;8.916;2022-10-13T10:36:40;12.32;;;7.78;;
54705;SDS011;40603;48.774;8.916;2022-10-13T10:39:20;14.98;;;7.85;;
54705;SDS011;40603;48.774;8.916;2022-10-13T10:41:52;18.80;;;8.45;;
54705;SDS011;40603;48.774;8.916;2022-10-13T10:44:32;17.35;;;8.32;;
54705;SDS011;40603;48.774;8.916;2022-10-13T10:47:10;17.30;;;8.68;;
54705;SDS011;40603;48.774;8.916;2022-10-13T10:52:06;13.60;;;7.03;;
54705;SDS011;40603;48.774;8.916;2022-10-13T10:57:10;13.57;;;7.55;;
54705;SDS011;40603;48.774;8.916;2022-10-13T11:02:29;15.57;;;7.32;;
54705;SDS011;40603;48.774;8.916;2022-10-13T11:05:01;14.50;;;6.63;;
54705;SDS011;40603;48.774;8.916;2022-10-13T11:14:44;18.53;;;6.90;;
54705;SDS011;40603;48.774;8.916;2022-10-13T11:17:15;19.25;;;6.78;;
54705;SDS011;40603;48.774;8.916;2022-10-13T11:19:42;15.75;;;6.40;;
54705;SDS011;40603;48.774;8.916;2022-10-13T11:22:11;13.95;;;7.50;;
54705;SDS011;40603;48.774;8.916;2022-10-13T11:37:29;8.93;;;4.90;;
54705;SDS011;40603;48.774;8.916;2022-10-13T11:48:18;11.90;;;5.47;;
54705;SDS011;40603;48.774;8.916;2022-10-13T11:56:48;6.95;;;4.50;;
54705;SDS011;40603;48.774;8.916;2022-10-13T12:01:55;10.75;;;4.63;;
54705;SDS011;40603;48.774;8.916;2022-10-13T12:04:22;8.82;;;3.92;;
54705;SDS011;40603;48.774;8.916;2022-10-13T12:06:56;11.60;;;4.35;;
54705;SDS011;40603;48.774;8.916;2022-10-13T12:09:23;9.52;;;4.03;;
54705;SDS011;40603;48.774;8.916;2022-10-13T12:12:22;9.00;;;3.60;;
54705;SDS011;40603;48.774;8.916;2022-10-13T12:14:42;7.63;;;3.53;;
54705;SDS011;40603;48.774;8.916;2022-10-13T12:17:22;9.13;;;4.20;;
54705;SDS011;40603;48.774;8.916;2022-10-13T12:19:48;9.18;;;3.47;;
54705;SDS011;40603;48.774;8.916;2022-10-13T12:22:14;12.80;;;4.22;;
54705;SDS011;40603;48.774;8.916;2022-10-13T12:24:39;7.82;;;4.25;;
54705;SDS011;40603;48.774;8.916;2022-10-13T12:27:19;7.72;;;4.22;;
54705;SDS011;40603;48.774;8.916;2022-10-13T12:29:45;9.05;;;4.18;;
54705;SDS011;40603;48.774;8.916;2022-10-13T12:32:18;8.60;;;4.95;;
54705;SDS011;40603;48.774;8.916;2022-10-13T12:34:44;12.35;;;4.95;;
54705;SDS011;40603;48.774;8.916;2022-10-13T12:37:13;9.90;;;5.07;;
54705;SDS011;40603;48.774;8.916;2022-10-13T12:39:42;11.93;;;4.75;;
54705;SDS011;40603;48.774;8.916;2022-10-13T12:42:08;10.20;;;5.72;;
54705;SDS011;40603;48.774;8.916;2022-10-13T12:44:35;9.73;;;4.60;;
54705;SDS011;40603;48.774;8.916;2022-10-13T12:47:01;8.85;;;3.88;;
54705;SDS011;40603;48.774;8.916;2022-10-13T12:49:31;7.97;;;3.50;;
54705;SDS011;40603;48.774;8.916;2022-10-13T12:52:04;10.55;;;3.40;;
54705;SDS011;40603;48.774;8.916;2022-10-13T12:54:46;7.68;;;3.28;;
54705;SDS011;40603;48.774;8.916;2022-10-13T12:57:32;6.90;;;4.63;;
54705;SDS011;40603;48.774;8.916;2022-10-13T13:00:02;7.88;;;5.00;;
54705;SDS011;40603;48.774;8.916;2022-10-13T13:02:54;13.20;;;4.95;;
54705;SDS011;40603;48.774;8.916;2022-10-13T13:06:05;11.75;;;4.28;;
54705;SDS011;40603;48.774;8.916;2022-10-13T13:08:28;9.25;;;5.10;;
54705;SDS011;40603;48.774;8.916;2022-10-13T13:10:59;9.48;;;4.88;;
54705;SDS011;40603;48.774;8.916;2022-10-13T13:13:26;8.38;;;4.53;;
54705;SDS011;40603;48.774;8.916;2022-10-13T13:15:51;10.35;;;3.60;;
54705;SDS011;40603;48.774;8.916;2022-10-13T13:18:33;12.90;;;3.28;;
54705;SDS011;40603;48.774;8.916;2022-10-13T13:21:07;10.77;;;3.90;;
54705;SDS011;40603;48.774;8.916;2022-10-13T13:23:34;6.50;;;4.07;;
54705;SDS011;40603;48.774;8.916;2022-10-13T13:28:42;8.80;;;3.50;;
54705;SDS011;40603;48.774;8.916;2022-10-13T13:31:12;7.03;;;3.30;;
54705;SDS011;40603;48.774;8.916;2022-10-13T13:33:39;9.50;;;4.07;;
54705;SDS011;40603;48.774;8.916;2022-10-13T13:36:09;13.07;;;4.15;;
54705;SDS011;40603;48.774;8.916;2022-10-13T13:38:41;10.93;;;4.18;;
54705;SDS011;40603;48.774;8.916;2022-10-13T13:41:08;6.57;;;3.08;;
54705;SDS011;40603;48.774;8.916;2022-10-13T13:43:34;7.05;;;3.58;;
54705;SDS011;40603;48.774;8.916;2022-10-13T13:45:59;11.30;;;3.33;;
54705;SDS011;40603;48.774;8.916;2022-10-13T13:48:25;8.05;;;3.20;;
54705;SDS011;40603;48.774;8.916;2022-10-13T13:50:50;6.50;;;3.45;;
54705;SDS011;40603;48.774;8.916;2022-10-13T13:53:15;8.00;;;3.53;;
54705;SDS011;40603;48.774;8.916;2022-10-13T13:55:41;7.85;;;3.78;;
54705;SDS011;40603;48.774;8.916;2022-10-13T13:58:08;7.28;;;3.60;;
54705;SDS011;40603;48.774;8.916;2022-10-13T14:00:33;13.32;;;4.75;;
54705;SDS011;40603;48.774;8.916;2022-10-13T14:02:59;15.00;;;5.32;;
54705;SDS011;40603;48.774;8.916;2022-10-13T14:05:24;15.35;;;6.00;;
54705;SDS011;40603;48.774;8.916;2022-10-13T14:07:51;16.30;;;6.15;;
54705;SDS011;40603;48.774;8.916;2022-10-13T14:10:17;17.33;;;5.70;;
54705;SDS011;40603;48.774;8.916;2022-10-13T14:12:42;12.02;;;6.03;;
54705;SDS011;40603;48.774;8.916;2022-10-13T14:15:08;12.70;;;5.88;;
54705;SDS011;40603;48.774;8.916;2022-10-13T14:17:34;11.02;;;5.82;;
54705;SDS011;40603;48.774;8.916;2022-10-13T14:19:59;12.15;;;6.57;;
54705;SDS011;40603;48.774;8.916;2022-10-13T14:22:24;15.30;;;7.10;;
54705;SDS011;40603;48.774;8.916;2022-10-13T14:24:50;16.13;;;7.10;;
54705;SDS011;40603;48.774;8.916;2022-10-13T14:27:15;13.80;;;7.13;;
54705;SDS011;40603;48.774;8.916;2022-10-13T14:29:41;16.40;;;8.27;;
54705;SDS011;40603;48.774;8.916;2022-10-13T14:32:06;16.40;;;7.45;;
54705;SDS011;40603;48.774;8.916;2022-10-13T14:34:31;13.98;;;8.10;;
54705;SDS011;40603;48.774;8.916;2022-10-13T14:36:57;14.73;;;8.20;;
54705;SDS011;40603;48.774;8.916;2022-10-13T14:39:22;18.42;;;8.13;;
54705;SDS011;40603;48.774;8.916;2022-10-13T14:41:48;19.88;;;8.50;;
54705;SDS011;40603;48.774;8.916;2022-10-13T14:44:13;16.23;;;8.30;;
54705;SDS011;40603;48.774;8.916;2022-10-13T14:46:39;17.23;;;8.95;;
54705;SDS011;40603;48.774;8.916;2022-10-13T14:49:04;19.90;;;8.18;;
54705;SDS011;40603;48.774;8.916;2022-10-13T14:51:30;14.80;;;8.55;;
54705;SDS011;40603;48.774;8.916;2022-10-13T14:53:56;14.50;;;8.00;;
54705;SDS011;40603;48.774;8.916;2022-10-13T14:56:22;18.58;;;8.00;;
54705;SDS011;40603;48.774;8.916;2022-10-13T14:58:49;15.15;;;8.95;;
54705;SDS011;40603;48.774;8.916;2022-10-13T15:01:18;14.85;;;7.47;;
54705;SDS011;40603;48.774;8.916;2022-10-13T15:03:43;17.40;;;8.60;;
54705;SDS011;40603;48.774;8.916;2022-10-13T15:06:11;16.40;;;8.43;;
54705;SDS011;40603;48.774;8.916;2022-10-13T15:08:38;17.23;;;8.00;;
54705;SDS011;40603;48.774;8.916;2022-10-13T15:11:03;19.83;;;8.90;;
54705;SDS011;40603;48.774;8.916;2022-10-13T15:13:29;14.38;;;8.05;;
54705;SDS011;40603;48.774;8.916;2022-10-13T15:15:55;15.10;;;8.60;;
54705;SDS011;40603;48.774;8.916;2022-10-13T15:18:21;19.80;;;8.00;;
54705;SDS011;40603;48.774;8.916;2022-10-13T15:20:46;17.00;;;7.35;;
54705;SDS011;40603;48.774;8.916;2022-10-13T15:23:12;14.25;;;8.48;;
54705;SDS011;40603;48.774;8.916;2022-10-13T15:25:38;21.90;;;8.40;;
54705;SDS011;40603;48.774;8.916;2022-10-13T15:28:03;15.45;;;8.15;;
54705;SDS011;40603;48.774;8.916;2022-10-13T15:30:31;19.48;;;8.35;;
54705;SDS011;40603;48.774;8.916;2022-10-13T15:32:57;15.32;;;8.07;;
54705;SDS011;40603;48.774;8.916;2022-10-13T15:35:22;16.20;;;7.82;;
54705;SDS011;40603;48.774;8.916;2022-10-13T15:37:48;20.20;;;8.32;;
54705;SDS011;40603;48.774;8.916;2022-10-13T15:40:13;56.80;;;10.05;;
54705;SDS011;40603;48.774;8.916;2022-10-13T15:42:38;84.50;;;15.93;;
54705;SDS011;40603;48.774;8.916;2022-10-13T15:45:04;29.10;;;9.13;;
54705;SDS011;40603;48.774;8.916;2022-10-13T15:47:29;70.55;;;13.18;;
54705;SDS011;40603;48.774;8.916;2022-10-13T15:49:55;34.95;;;9.77;;
54705;SDS011;40603;48.774;8.916;2022-10-13T15:52:20;37.10;;;9.48;;
54705;SDS011;40603;48.774;8.916;2022-10-13T15:54:46;46.88;;;9.25;;
54705;SDS011;40603;48.774;8.916;2022-10-13T15:57:15;20.83;;;8.48;;
54705;SDS011;40603;48.774;8.916;2022-10-13T15:59:40;28.83;;;8.88;;
54705;SDS011;40603;48.774;8.916;2022-10-13T16:02:05;22.08;;;9.57;;
54705;SDS011;40603;48.774;8.916;2022-10-13T16:04:31;28.70;;;8.88;;
54705;SDS011;40603;48.774;8.916;2022-10-13T16:06:56;21.50;;;9.52;;
54705;SDS011;40603;48.774;8.916;2022-10-13T16:09:21;19.13;;;8.27;;
54705;SDS011;40603;48.774;8.916;2022-10-13T16:11:46;25.40;;;9.52;;